sensor_id;sensor_type;location;lat;lon;timestamp;temperature;humidity
2721;DHT22;1368;49.484;11.112;2024-01-07T00:02:23;6.50;99.90
2721;DHT22;1368;49.484;11.112;2024-01-07T00:04:49;6.50;99.90
2721;DHT22;1368;49.484;11.112;2024-01-07T00:07:14;6.50;99.90
2721;DHT22;1368;49.484;11.112;2024-01-07T00:09:40;6.40;99.90
2721;DHT22;1368;49.484;11.112;2024-01-07T00:12:06;6.20;99.90
2721;DHT22;1368;49.484;11.112;2024-01-07T00:14:31;6.20;99.90
2721;DHT22;1368;49.484;11.112;2024-01-07T00:16:58;6.20;99.90
2721;DHT22;1368;49.484;11.112;2024-01-07T00:19:23;6.30;99.90
2721;DHT22;1368;49.484;11.112;2024-01-07T00:21:49;6.20;99.90
2721;DHT22;1368;49.484;11.112;2024-01-07T00:24:15;6.30;99.90
2721;DHT22;1368;49.484;11.112;2024-01-07T00:26:41;6.50;99.90
2721;DHT22;1368;49.484;11.112;2024-01-07T00:29:06;6.40;99.90
2721;DHT22;1368;49.484;11.112;2024-01-07T00:31:32;6.30;99.90
2721;DHT22;1368;49.484;11.112;2024-01-07T00:33:57;6.40;99.90
2721;DHT22;1368;49.484;11.112;2024-01-07T00:36:23;6.40;99.90
2721;DHT22;1368;49.484;11.112;2024-01-07T00:38:48;6.50;99.90
2721;DHT22;1368;49.484;11.112;2024-01-07T00:41:14;6.60;99.90
2721;DHT22;1368;49.484;11.112;2024-01-07T00:43:40;6.60;99.90
2721;DHT22;1368;49.484;11.112;2024-01-07T00:46:06;6.60;99.90
2721;DHT22;1368;49.484;11.112;2024-01-07T00:48:32;6.40;99.90
2721;DHT22;1368;49.484;11.112;2024-01-07T00:50:57;6.40;99.90
2721;DHT22;1368;49.484;11.112;2024-01-07T00:53:23;6.40;99.90
2721;DHT22;1368;49.484;11.112;2024-01-07T00:55:48;6.40;99.90
2721;DHT22;1368;49.484;11.112;2024-01-07T00:58:14;6.50;99.90
2721;DHT22;1368;49.484;11.112;2024-01-07T01:00:39;6.50;99.90
2721;DHT22;1368;49.484;11.112;2024-01-07T01:03:05;6.60;99.90
2721;DHT22;1368;49.484;11.112;2024-01-07T01:05:30;6.60;99.90
2721;DHT22;1368;49.484;11.112;2024-01-07T01:07:56;6.60;99.90
2721;DHT22;1368;49.484;11.112;2024-01-07T01:10:22;6.60;99.90
2721;DHT22;1368;49.484;11.112;2024-01-07T01:12:47;6.70;99.90
2721;DHT22;1368;49.484;11.112;2024-01-07T01:15:13;6.80;99.90
2721;DHT22;1368;49.484;11.112;2024-01-07T01:17:42;6.80;99.90
2721;DHT22;1368;49.484;11.112;2024-01-07T01:20:07;6.80;99.90
2721;DHT22;1368;49.484;11.112;2024-01-07T01:22:33;6.90;99.90
2721;DHT22;1368;49.484;11.112;2024-01-07T01:24:59;6.90;99.90
2721;DHT22;1368;49.484;11.112;2024-01-07T01:27:25;6.90;99.90
2721;DHT22;1368;49.484;11.112;2024-01-07T01:29:50;6.90;99.90
2721;DHT22;1368;49.484;11.112;2024-01-07T01:32:16;7.10;99.90
2721;DHT22;1368;49.484;11.112;2024-01-07T01:34:42;6.90;99.90
2721;DHT22;1368;49.484;11.112;2024-01-07T01:37:08;6.90;99.90
2721;DHT22;1368;49.484;11.112;2024-01-07T01:39:34;6.90;99.90
2721;DHT22;1368;49.484;11.112;2024-01-07T01:42:00;6.90;99.90
2721;DHT22;1368;49.484;11.112;2024-01-07T01:44:25;7.00;99.90
2721;DHT22;1368;49.484;11.112;2024-01-07T01:46:53;7.00;99.90
2721;DHT22;1368;49.484;11.112;2024-01-07T01:49:20;7.00;99.90
2721;DHT22;1368;49.484;11.112;2024-01-07T01:51:45;7.10;99.90
2721;DHT22;1368;49.484;11.112;2024-01-07T01:54:11;7.10;99.90
2721;DHT22;1368;49.484;11.112;2024-01-07T01:56:37;7.00;99.90
2721;DHT22;1368;49.484;11.112;2024-01-07T01:59:03;6.90;99.90
2721;DHT22;1368;49.484;11.112;2024-01-07T02:01:29;6.90;99.90
2721;DHT22;1368;49.484;11.112;2024-01-07T02:03:56;6.80;99.90
2721;DHT22;1368;49.484;11.112;2024-01-07T02:06:22;6.70;99.90
2721;DHT22;1368;49.484;11.112;2024-01-07T02:08:48;6.70;99.90
2721;DHT22;1368;49.484;11.112;2024-01-07T02:11:23;6.70;99.90
2721;DHT22;1368;49.484;11.112;2024-01-07T02:13:49;6.60;99.90
2721;DHT22;1368;49.484;11.112;2024-01-07T02:16:15;6.60;99.90
2721;DHT22;1368;49.484;11.112;2024-01-07T02:18:41;6.60;99.90
2721;DHT22;1368;49.484;11.112;2024-01-07T02:21:08;6.70;99.90
2721;DHT22;1368;49.484;11.112;2024-01-07T02:23:34;6.70;99.90
2721;DHT22;1368;49.484;11.112;2024-01-07T02:26:00;6.80;99.90
2721;DHT22;1368;49.484;11.112;2024-01-07T02:28:25;6.90;99.90
2721;DHT22;1368;49.484;11.112;2024-01-07T02:30:51;7.00;99.90
2721;DHT22;1368;49.484;11.112;2024-01-07T02:33:16;6.90;99.90
2721;DHT22;1368;49.484;11.112;2024-01-07T02:35:42;6.90;99.90
2721;DHT22;1368;49.484;11.112;2024-01-07T02:38:07;6.80;99.90
2721;DHT22;1368;49.484;11.112;2024-01-07T02:40:33;6.30;99.90
2721;DHT22;1368;49.484;11.112;2024-01-07T02:42:58;6.10;99.90
2721;DHT22;1368;49.484;11.112;2024-01-07T02:45:24;5.70;99.90
2721;DHT22;1368;49.484;11.112;2024-01-07T02:47:50;5.60;99.90
2721;DHT22;1368;49.484;11.112;2024-01-07T02:50:15;5.50;99.90
2721;DHT22;1368;49.484;11.112;2024-01-07T02:52:44;5.50;99.90
2721;DHT22;1368;49.484;11.112;2024-01-07T02:55:09;5.30;99.90
2721;DHT22;1368;49.484;11.112;2024-01-07T02:57:35;5.20;99.90
2721;DHT22;1368;49.484;11.112;2024-01-07T03:00:00;5.40;99.90
2721;DHT22;1368;49.484;11.112;2024-01-07T03:02:26;5.40;99.90
2721;DHT22;1368;49.484;11.112;2024-01-07T03:04:51;5.40;99.90
2721;DHT22;1368;49.484;11.112;2024-01-07T03:07:17;4.90;99.90
2721;DHT22;1368;49.484;11.112;2024-01-07T03:09:43;4.40;99.90
2721;DHT22;1368;49.484;11.112;2024-01-07T03:12:08;4.30;99.90
2721;DHT22;1368;49.484;11.112;2024-01-07T03:14:34;4.20;99.90
2721;DHT22;1368;49.484;11.112;2024-01-07T03:16:59;4.10;99.90
2721;DHT22;1368;49.484;11.112;2024-01-07T03:19:25;4.30;99.90
2721;DHT22;1368;49.484;11.112;2024-01-07T03:21:50;4.30;99.90
2721;DHT22;1368;49.484;11.112;2024-01-07T03:24:16;4.30;99.90
2721;DHT22;1368;49.484;11.112;2024-01-07T03:26:41;4.40;99.90
2721;DHT22;1368;49.484;11.112;2024-01-07T03:29:07;4.60;99.90
2721;DHT22;1368;49.484;11.112;2024-01-07T03:31:33;4.60;99.90
2721;DHT22;1368;49.484;11.112;2024-01-07T03:33:58;4.50;99.90
2721;DHT22;1368;49.484;11.112;2024-01-07T03:36:24;4.60;99.90
2721;DHT22;1368;49.484;11.112;2024-01-07T03:38:49;4.60;99.90
2721;DHT22;1368;49.484;11.112;2024-01-07T03:41:19;4.80;99.90
2721;DHT22;1368;49.484;11.112;2024-01-07T03:43:48;4.90;99.90
2721;DHT22;1368;49.484;11.112;2024-01-07T03:46:14;4.80;99.90
2721;DHT22;1368;49.484;11.112;2024-01-07T03:48:41;5.10;99.90
2721;DHT22;1368;49.484;11.112;2024-01-07T03:51:06;4.60;99.90
2721;DHT22;1368;49.484;11.112;2024-01-07T03:53:32;4.50;99.90
2721;DHT22;1368;49.484;11.112;2024-01-07T03:55:58;4.60;99.90
2721;DHT22;1368;49.484;11.112;2024-01-07T03:58:24;4.80;99.90
2721;DHT22;1368;49.484;11.112;2024-01-07T04:00:49;4.50;99.90
2721;DHT22;1368;49.484;11.112;2024-01-07T04:03:15;4.40;99.90
2721;DHT22;1368;49.484;11.112;2024-01-07T04:05:40;4.10;99.90
2721;DHT22;1368;49.484;11.112;2024-01-07T04:08:09;4.00;99.90
2721;DHT22;1368;49.484;11.112;2024-01-07T04:10:34;4.10;99.90
2721;DHT22;1368;49.484;11.112;2024-01-07T04:13:00;4.20;99.90
2721;DHT22;1368;49.484;11.112;2024-01-07T04:15:26;4.30;99.90
2721;DHT22;1368;49.484;11.112;2024-01-07T04:17:51;4.40;99.90
2721;DHT22;1368;49.484;11.112;2024-01-07T04:20:17;4.40;99.90
2721;DHT22;1368;49.484;11.112;2024-01-07T04:22:42;4.10;99.90
2721;DHT22;1368;49.484;11.112;2024-01-07T04:25:08;4.10;99.90
2721;DHT22;1368;49.484;11.112;2024-01-07T04:27:37;4.10;99.90
2721;DHT22;1368;49.484;11.112;2024-01-07T04:30:04;4.00;99.90
2721;DHT22;1368;49.484;11.112;2024-01-07T04:32:30;3.70;99.90
2721;DHT22;1368;49.484;11.112;2024-01-07T04:34:55;3.60;99.90
2721;DHT22;1368;49.484;11.112;2024-01-07T04:37:22;3.60;99.90
2721;DHT22;1368;49.484;11.112;2024-01-07T04:39:48;3.50;99.90
2721;DHT22;1368;49.484;11.112;2024-01-07T04:42:14;3.60;99.90
2721;DHT22;1368;49.484;11.112;2024-01-07T04:44:39;3.70;99.90
2721;DHT22;1368;49.484;11.112;2024-01-07T04:47:05;3.80;99.90
2721;DHT22;1368;49.484;11.112;2024-01-07T04:49:47;3.70;99.90
2721;DHT22;1368;49.484;11.112;2024-01-07T04:52:13;3.90;99.90
2721;DHT22;1368;49.484;11.112;2024-01-07T04:54:38;4.10;99.90
2721;DHT22;1368;49.484;11.112;2024-01-07T04:57:04;4.20;99.90
2721;DHT22;1368;49.484;11.112;2024-01-07T04:59:29;4.10;99.90
2721;DHT22;1368;49.484;11.112;2024-01-07T05:01:55;4.20;99.90
2721;DHT22;1368;49.484;11.112;2024-01-07T05:04:21;4.40;99.90
2721;DHT22;1368;49.484;11.112;2024-01-07T05:06:47;4.60;99.90
2721;DHT22;1368;49.484;11.112;2024-01-07T05:09:12;4.40;99.90
2721;DHT22;1368;49.484;11.112;2024-01-07T05:11:40;4.40;99.90
2721;DHT22;1368;49.484;11.112;2024-01-07T05:14:05;4.40;99.90
2721;DHT22;1368;49.484;11.112;2024-01-07T05:16:31;4.00;99.90
2721;DHT22;1368;49.484;11.112;2024-01-07T05:18:57;3.80;99.90
2721;DHT22;1368;49.484;11.112;2024-01-07T05:21:22;3.80;99.90
2721;DHT22;1368;49.484;11.112;2024-01-07T05:23:48;3.60;99.90
2721;DHT22;1368;49.484;11.112;2024-01-07T05:26:13;3.60;99.90
2721;DHT22;1368;49.484;11.112;2024-01-07T05:28:39;3.50;99.90
2721;DHT22;1368;49.484;11.112;2024-01-07T05:31:04;3.60;99.90
2721;DHT22;1368;49.484;11.112;2024-01-07T05:33:30;3.80;99.90
2721;DHT22;1368;49.484;11.112;2024-01-07T05:35:56;3.70;99.90
2721;DHT22;1368;49.484;11.112;2024-01-07T05:38:21;3.70;99.90
2721;DHT22;1368;49.484;11.112;2024-01-07T05:40:47;3.60;99.90
2721;DHT22;1368;49.484;11.112;2024-01-07T05:43:12;3.50;99.90
2721;DHT22;1368;49.484;11.112;2024-01-07T05:45:38;3.30;99.90
2721;DHT22;1368;49.484;11.112;2024-01-07T05:48:03;3.30;99.90
2721;DHT22;1368;49.484;11.112;2024-01-07T05:50:29;3.60;99.90
2721;DHT22;1368;49.484;11.112;2024-01-07T05:52:55;3.60;99.90
2721;DHT22;1368;49.484;11.112;2024-01-07T05:55:20;3.50;99.90
2721;DHT22;1368;49.484;11.112;2024-01-07T05:57:46;3.70;99.90
2721;DHT22;1368;49.484;11.112;2024-01-07T06:00:12;3.90;99.90
2721;DHT22;1368;49.484;11.112;2024-01-07T06:02:38;3.60;99.90
2721;DHT22;1368;49.484;11.112;2024-01-07T06:05:05;3.70;99.90
2721;DHT22;1368;49.484;11.112;2024-01-07T06:07:30;3.50;99.90
2721;DHT22;1368;49.484;11.112;2024-01-07T06:09:56;3.30;99.90
2721;DHT22;1368;49.484;11.112;2024-01-07T06:12:22;3.40;99.90
2721;DHT22;1368;49.484;11.112;2024-01-07T06:14:47;3.60;99.90
2721;DHT22;1368;49.484;11.112;2024-01-07T06:17:13;3.70;99.90
2721;DHT22;1368;49.484;11.112;2024-01-07T06:19:38;3.80;99.90
2721;DHT22;1368;49.484;11.112;2024-01-07T06:22:04;3.60;99.90
2721;DHT22;1368;49.484;11.112;2024-01-07T06:24:29;3.40;99.90
2721;DHT22;1368;49.484;11.112;2024-01-07T06:26:55;3.40;99.90
2721;DHT22;1368;49.484;11.112;2024-01-07T06:29:20;3.40;99.90
2721;DHT22;1368;49.484;11.112;2024-01-07T06:31:46;3.50;99.90
2721;DHT22;1368;49.484;11.112;2024-01-07T06:34:11;3.20;99.90
2721;DHT22;1368;49.484;11.112;2024-01-07T06:36:40;3.00;99.90
2721;DHT22;1368;49.484;11.112;2024-01-07T06:39:09;3.00;99.90
2721;DHT22;1368;49.484;11.112;2024-01-07T06:41:35;2.90;99.90
2721;DHT22;1368;49.484;11.112;2024-01-07T06:44:01;3.30;99.90
2721;DHT22;1368;49.484;11.112;2024-01-07T06:46:27;3.50;99.90
2721;DHT22;1368;49.484;11.112;2024-01-07T06:48:52;3.50;99.90
2721;DHT22;1368;49.484;11.112;2024-01-07T06:51:18;3.50;99.90
2721;DHT22;1368;49.484;11.112;2024-01-07T06:53:44;3.10;99.90
2721;DHT22;1368;49.484;11.112;2024-01-07T06:56:09;3.10;99.90
2721;DHT22;1368;49.484;11.112;2024-01-07T06:58:35;3.30;99.90
2721;DHT22;1368;49.484;11.112;2024-01-07T07:01:00;3.20;99.90
2721;DHT22;1368;49.484;11.112;2024-01-07T07:03:26;3.10;99.90
2721;DHT22;1368;49.484;11.112;2024-01-07T07:05:51;2.90;99.90
2721;DHT22;1368;49.484;11.112;2024-01-07T07:08:17;2.80;99.90
2721;DHT22;1368;49.484;11.112;2024-01-07T07:10:42;2.90;99.90
2721;DHT22;1368;49.484;11.112;2024-01-07T07:13:08;3.00;99.90
2721;DHT22;1368;49.484;11.112;2024-01-07T07:15:34;3.00;99.90
2721;DHT22;1368;49.484;11.112;2024-01-07T07:17:59;3.00;99.90
2721;DHT22;1368;49.484;11.112;2024-01-07T07:20:25;3.00;99.90
2721;DHT22;1368;49.484;11.112;2024-01-07T07:22:50;3.10;99.90
2721;DHT22;1368;49.484;11.112;2024-01-07T07:25:16;3.10;99.90
2721;DHT22;1368;49.484;11.112;2024-01-07T07:27:41;3.00;99.90
2721;DHT22;1368;49.484;11.112;2024-01-07T07:30:07;2.90;99.90
2721;DHT22;1368;49.484;11.112;2024-01-07T07:32:33;3.00;99.90
2721;DHT22;1368;49.484;11.112;2024-01-07T07:34:59;3.00;99.90
2721;DHT22;1368;49.484;11.112;2024-01-07T07:37:25;3.00;99.90
2721;DHT22;1368;49.484;11.112;2024-01-07T07:39:50;2.90;99.90
2721;DHT22;1368;49.484;11.112;2024-01-07T07:42:16;2.70;99.90
2721;DHT22;1368;49.484;11.112;2024-01-07T07:44:42;2.80;99.90
2721;DHT22;1368;49.484;11.112;2024-01-07T07:47:08;2.80;99.90
2721;DHT22;1368;49.484;11.112;2024-01-07T07:49:37;2.80;99.90
2721;DHT22;1368;49.484;11.112;2024-01-07T07:52:06;2.90;99.90
2721;DHT22;1368;49.484;11.112;2024-01-07T07:54:32;3.10;99.90
2721;DHT22;1368;49.484;11.112;2024-01-07T07:56:57;3.00;99.90
2721;DHT22;1368;49.484;11.112;2024-01-07T07:59:23;3.00;99.90
2721;DHT22;1368;49.484;11.112;2024-01-07T08:01:49;2.80;99.90
2721;DHT22;1368;49.484;11.112;2024-01-07T08:04:15;2.70;99.90
2721;DHT22;1368;49.484;11.112;2024-01-07T08:06:41;2.50;99.90
2721;DHT22;1368;49.484;11.112;2024-01-07T08:09:08;2.60;99.90
2721;DHT22;1368;49.484;11.112;2024-01-07T08:11:34;2.70;99.90
2721;DHT22;1368;49.484;11.112;2024-01-07T08:13:59;2.70;99.90
2721;DHT22;1368;49.484;11.112;2024-01-07T08:16:27;2.60;99.90
2721;DHT22;1368;49.484;11.112;2024-01-07T08:18:52;2.60;99.90
2721;DHT22;1368;49.484;11.112;2024-01-07T08:21:18;2.40;99.90
2721;DHT22;1368;49.484;11.112;2024-01-07T08:23:43;2.20;99.90
2721;DHT22;1368;49.484;11.112;2024-01-07T08:26:09;2.30;99.90
2721;DHT22;1368;49.484;11.112;2024-01-07T08:28:34;2.40;99.90
2721;DHT22;1368;49.484;11.112;2024-01-07T08:31:00;2.40;99.90
2721;DHT22;1368;49.484;11.112;2024-01-07T08:33:25;2.30;99.90
2721;DHT22;1368;49.484;11.112;2024-01-07T08:35:51;2.20;99.90
2721;DHT22;1368;49.484;11.112;2024-01-07T08:38:17;2.20;99.90
2721;DHT22;1368;49.484;11.112;2024-01-07T08:40:42;2.40;99.90
2721;DHT22;1368;49.484;11.112;2024-01-07T08:43:08;2.30;99.90
2721;DHT22;1368;49.484;11.112;2024-01-07T08:45:34;2.40;99.90
2721;DHT22;1368;49.484;11.112;2024-01-07T08:47:59;2.30;99.90
2721;DHT22;1368;49.484;11.112;2024-01-07T08:50:25;2.30;99.90
2721;DHT22;1368;49.484;11.112;2024-01-07T08:52:50;2.20;99.90
2721;DHT22;1368;49.484;11.112;2024-01-07T08:55:16;2.00;99.90
2721;DHT22;1368;49.484;11.112;2024-01-07T08:57:41;2.00;99.90
2721;DHT22;1368;49.484;11.112;2024-01-07T09:00:07;2.10;99.90
2721;DHT22;1368;49.484;11.112;2024-01-07T09:02:33;2.20;99.90
2721;DHT22;1368;49.484;11.112;2024-01-07T09:04:59;2.10;99.90
2721;DHT22;1368;49.484;11.112;2024-01-07T09:07:24;2.00;99.90
2721;DHT22;1368;49.484;11.112;2024-01-07T09:09:50;1.90;99.90
2721;DHT22;1368;49.484;11.112;2024-01-07T09:12:16;1.90;99.90
2721;DHT22;1368;49.484;11.112;2024-01-07T09:14:42;2.00;99.90
2721;DHT22;1368;49.484;11.112;2024-01-07T09:17:07;2.20;99.90
2721;DHT22;1368;49.484;11.112;2024-01-07T09:19:33;2.30;99.90
2721;DHT22;1368;49.484;11.112;2024-01-07T09:21:59;2.10;99.90
2721;DHT22;1368;49.484;11.112;2024-01-07T09:24:25;1.90;99.90
2721;DHT22;1368;49.484;11.112;2024-01-07T09:26:50;2.40;99.90
2721;DHT22;1368;49.484;11.112;2024-01-07T09:29:17;1.70;99.90
2721;DHT22;1368;49.484;11.112;2024-01-07T09:31:42;1.60;99.90
2721;DHT22;1368;49.484;11.112;2024-01-07T09:34:08;1.60;99.90
2721;DHT22;1368;49.484;11.112;2024-01-07T09:36:33;1.60;99.90
2721;DHT22;1368;49.484;11.112;2024-01-07T09:39:00;1.70;99.90
2721;DHT22;1368;49.484;11.112;2024-01-07T09:41:26;1.60;99.90
2721;DHT22;1368;49.484;11.112;2024-01-07T09:43:52;1.50;99.90
2721;DHT22;1368;49.484;11.112;2024-01-07T09:46:18;1.50;99.90
2721;DHT22;1368;49.484;11.112;2024-01-07T09:48:44;2.20;99.90
2721;DHT22;1368;49.484;11.112;2024-01-07T09:51:11;1.90;99.90
2721;DHT22;1368;49.484;11.112;2024-01-07T09:53:39;1.50;99.90
2721;DHT22;1368;49.484;11.112;2024-01-07T09:56:42;1.50;99.90
2721;DHT22;1368;49.484;11.112;2024-01-07T09:59:08;1.60;99.90
2721;DHT22;1368;49.484;11.112;2024-01-07T10:01:34;1.70;99.90
2721;DHT22;1368;49.484;11.112;2024-01-07T10:04:01;1.90;99.90
2721;DHT22;1368;49.484;11.112;2024-01-07T10:06:27;1.90;99.90
2721;DHT22;1368;49.484;11.112;2024-01-07T10:08:52;1.90;99.90
2721;DHT22;1368;49.484;11.112;2024-01-07T10:11:18;1.70;99.90
2721;DHT22;1368;49.484;11.112;2024-01-07T10:13:46;1.80;99.90
2721;DHT22;1368;49.484;11.112;2024-01-07T10:16:16;1.70;99.90
2721;DHT22;1368;49.484;11.112;2024-01-07T10:18:42;1.50;99.90
2721;DHT22;1368;49.484;11.112;2024-01-07T10:21:07;1.30;99.90
2721;DHT22;1368;49.484;11.112;2024-01-07T10:23:33;1.30;99.90
2721;DHT22;1368;49.484;11.112;2024-01-07T10:25:59;1.50;99.90
2721;DHT22;1368;49.484;11.112;2024-01-07T10:28:24;1.60;99.90
2721;DHT22;1368;49.484;11.112;2024-01-07T10:30:50;1.90;99.90
2721;DHT22;1368;49.484;11.112;2024-01-07T10:33:19;1.90;99.90
2721;DHT22;1368;49.484;11.112;2024-01-07T10:35:52;1.70;99.90
2721;DHT22;1368;49.484;11.112;2024-01-07T10:38:21;1.70;99.90
2721;DHT22;1368;49.484;11.112;2024-01-07T10:40:52;1.70;99.90
2721;DHT22;1368;49.484;11.112;2024-01-07T10:43:19;1.60;99.90
2721;DHT22;1368;49.484;11.112;2024-01-07T10:45:47;1.80;99.90
2721;DHT22;1368;49.484;11.112;2024-01-07T10:48:18;2.00;99.90
2721;DHT22;1368;49.484;11.112;2024-01-07T10:50:47;2.00;99.90
2721;DHT22;1368;49.484;11.112;2024-01-07T10:53:21;1.90;99.90
2721;DHT22;1368;49.484;11.112;2024-01-07T10:55:54;1.90;99.90
2721;DHT22;1368;49.484;11.112;2024-01-07T10:58:21;1.80;99.90
2721;DHT22;1368;49.484;11.112;2024-01-07T11:00:47;1.90;99.90
2721;DHT22;1368;49.484;11.112;2024-01-07T11:03:24;1.90;99.90
2721;DHT22;1368;49.484;11.112;2024-01-07T11:06:05;1.90;99.90
2721;DHT22;1368;49.484;11.112;2024-01-07T11:11:25;1.90;99.90
2721;DHT22;1368;49.484;11.112;2024-01-07T11:13:52;1.80;99.90
2721;DHT22;1368;49.484;11.112;2024-01-07T11:16:56;2.20;99.90
2721;DHT22;1368;49.484;11.112;2024-01-07T11:19:21;1.70;99.90
2721;DHT22;1368;49.484;11.112;2024-01-07T11:21:47;1.80;99.90
2721;DHT22;1368;49.484;11.112;2024-01-07T11:24:38;1.80;99.90
2721;DHT22;1368;49.484;11.112;2024-01-07T11:27:04;2.20;99.90
2721;DHT22;1368;49.484;11.112;2024-01-07T11:29:31;2.00;99.90
2721;DHT22;1368;49.484;11.112;2024-01-07T11:31:57;1.80;99.90
2721;DHT22;1368;49.484;11.112;2024-01-07T11:34:40;1.60;99.90
2721;DHT22;1368;49.484;11.112;2024-01-07T11:37:12;1.70;99.90
2721;DHT22;1368;49.484;11.112;2024-01-07T11:39:41;1.80;99.90
2721;DHT22;1368;49.484;11.112;2024-01-07T11:42:07;1.70;99.90
2721;DHT22;1368;49.484;11.112;2024-01-07T11:44:35;1.70;99.90
2721;DHT22;1368;49.484;11.112;2024-01-07T11:47:04;1.70;99.90
2721;DHT22;1368;49.484;11.112;2024-01-07T11:49:33;1.60;99.90
2721;DHT22;1368;49.484;11.112;2024-01-07T11:52:01;1.50;99.90
2721;DHT22;1368;49.484;11.112;2024-01-07T11:54:29;1.40;99.90
2721;DHT22;1368;49.484;11.112;2024-01-07T11:56:55;1.40;99.90
2721;DHT22;1368;49.484;11.112;2024-01-07T11:59:21;1.40;99.90
2721;DHT22;1368;49.484;11.112;2024-01-07T12:01:46;1.50;99.90
2721;DHT22;1368;49.484;11.112;2024-01-07T12:04:12;1.70;99.90
2721;DHT22;1368;49.484;11.112;2024-01-07T12:06:38;1.60;99.90
2721;DHT22;1368;49.484;11.112;2024-01-07T12:09:04;1.50;99.90
2721;DHT22;1368;49.484;11.112;2024-01-07T12:11:30;1.40;99.90
2721;DHT22;1368;49.484;11.112;2024-01-07T12:13:57;1.60;99.90
2721;DHT22;1368;49.484;11.112;2024-01-07T12:16:22;1.60;99.90
2721;DHT22;1368;49.484;11.112;2024-01-07T12:18:48;1.30;99.90
2721;DHT22;1368;49.484;11.112;2024-01-07T12:21:19;1.20;99.90
2721;DHT22;1368;49.484;11.112;2024-01-07T12:23:51;1.50;99.90
2721;DHT22;1368;49.484;11.112;2024-01-07T12:26:17;1.80;99.90
2721;DHT22;1368;49.484;11.112;2024-01-07T12:28:45;1.50;99.90
2721;DHT22;1368;49.484;11.112;2024-01-07T12:31:10;2.00;99.90
2721;DHT22;1368;49.484;11.112;2024-01-07T12:33:39;1.70;99.90
2721;DHT22;1368;49.484;11.112;2024-01-07T12:36:06;1.60;99.90
2721;DHT22;1368;49.484;11.112;2024-01-07T12:38:32;1.60;99.90
2721;DHT22;1368;49.484;11.112;2024-01-07T12:40:58;1.60;99.90
2721;DHT22;1368;49.484;11.112;2024-01-07T12:43:24;1.60;99.90
2721;DHT22;1368;49.484;11.112;2024-01-07T12:45:50;1.40;99.90
2721;DHT22;1368;49.484;11.112;2024-01-07T12:48:15;1.50;99.90
2721;DHT22;1368;49.484;11.112;2024-01-07T12:50:41;1.50;99.90
2721;DHT22;1368;49.484;11.112;2024-01-07T12:53:06;1.70;99.90
2721;DHT22;1368;49.484;11.112;2024-01-07T12:55:33;1.70;99.90
2721;DHT22;1368;49.484;11.112;2024-01-07T12:57:59;1.80;99.90
2721;DHT22;1368;49.484;11.112;2024-01-07T13:00:25;2.00;99.90
2721;DHT22;1368;49.484;11.112;2024-01-07T13:02:52;1.90;99.90
2721;DHT22;1368;49.484;11.112;2024-01-07T13:05:17;1.40;99.90
2721;DHT22;1368;49.484;11.112;2024-01-07T13:07:44;1.00;99.90
2721;DHT22;1368;49.484;11.112;2024-01-07T13:10:09;1.10;99.90
2721;DHT22;1368;49.484;11.112;2024-01-07T13:12:35;1.20;99.90
2721;DHT22;1368;49.484;11.112;2024-01-07T13:15:02;1.30;99.90
2721;DHT22;1368;49.484;11.112;2024-01-07T13:17:27;1.60;99.90
2721;DHT22;1368;49.484;11.112;2024-01-07T13:19:55;1.70;99.90
2721;DHT22;1368;49.484;11.112;2024-01-07T13:22:20;1.40;99.90
2721;DHT22;1368;49.484;11.112;2024-01-07T13:24:46;1.30;99.90
2721;DHT22;1368;49.484;11.112;2024-01-07T13:27:12;1.20;99.90
2721;DHT22;1368;49.484;11.112;2024-01-07T13:29:38;1.20;99.90
2721;DHT22;1368;49.484;11.112;2024-01-07T13:32:04;1.30;99.90
2721;DHT22;1368;49.484;11.112;2024-01-07T13:34:29;1.50;99.90
2721;DHT22;1368;49.484;11.112;2024-01-07T13:36:55;1.60;99.90
2721;DHT22;1368;49.484;11.112;2024-01-07T13:39:21;1.70;99.90
2721;DHT22;1368;49.484;11.112;2024-01-07T13:41:47;1.60;99.90
2721;DHT22;1368;49.484;11.112;2024-01-07T13:44:13;1.50;99.90
2721;DHT22;1368;49.484;11.112;2024-01-07T13:46:46;1.50;99.90
2721;DHT22;1368;49.484;11.112;2024-01-07T13:49:14;1.40;99.90
2721;DHT22;1368;49.484;11.112;2024-01-07T13:51:42;1.40;99.90
2721;DHT22;1368;49.484;11.112;2024-01-07T13:54:08;1.40;99.90
2721;DHT22;1368;49.484;11.112;2024-01-07T13:56:38;1.30;99.90
2721;DHT22;1368;49.484;11.112;2024-01-07T13:59:07;1.40;99.90
2721;DHT22;1368;49.484;11.112;2024-01-07T14:01:33;1.50;99.90
2721;DHT22;1368;49.484;11.112;2024-01-07T14:03:59;1.30;99.90
2721;DHT22;1368;49.484;11.112;2024-01-07T14:06:24;1.10;99.90
2721;DHT22;1368;49.484;11.112;2024-01-07T14:08:50;1.00;99.90
2721;DHT22;1368;49.484;11.112;2024-01-07T14:11:15;1.00;99.90
2721;DHT22;1368;49.484;11.112;2024-01-07T14:13:41;0.80;99.90
2721;DHT22;1368;49.484;11.112;2024-01-07T14:16:09;0.90;99.90
2721;DHT22;1368;49.484;11.112;2024-01-07T14:18:35;0.80;99.90
2721;DHT22;1368;49.484;11.112;2024-01-07T14:21:00;0.60;99.90
2721;DHT22;1368;49.484;11.112;2024-01-07T14:23:26;0.70;99.90
2721;DHT22;1368;49.484;11.112;2024-01-07T14:25:52;0.80;99.90
2721;DHT22;1368;49.484;11.112;2024-01-07T14:28:18;0.90;99.90
2721;DHT22;1368;49.484;11.112;2024-01-07T14:30:43;0.90;99.90
2721;DHT22;1368;49.484;11.112;2024-01-07T14:33:09;1.00;99.90
2721;DHT22;1368;49.484;11.112;2024-01-07T14:35:35;1.30;99.90
2721;DHT22;1368;49.484;11.112;2024-01-07T14:38:01;1.50;99.90
2721;DHT22;1368;49.484;11.112;2024-01-07T14:40:26;1.60;99.90
2721;DHT22;1368;49.484;11.112;2024-01-07T14:42:52;1.60;99.90
2721;DHT22;1368;49.484;11.112;2024-01-07T14:45:23;1.20;99.90
2721;DHT22;1368;49.484;11.112;2024-01-07T14:47:50;1.10;99.90
2721;DHT22;1368;49.484;11.112;2024-01-07T14:50:16;0.90;99.90
2721;DHT22;1368;49.484;11.112;2024-01-07T14:52:43;1.10;99.90
2721;DHT22;1368;49.484;11.112;2024-01-07T14:55:08;1.10;99.90
2721;DHT22;1368;49.484;11.112;2024-01-07T14:57:34;1.30;99.90
2721;DHT22;1368;49.484;11.112;2024-01-07T15:00:00;1.30;99.90
2721;DHT22;1368;49.484;11.112;2024-01-07T15:02:25;1.30;99.90
2721;DHT22;1368;49.484;11.112;2024-01-07T15:04:51;1.30;99.90
2721;DHT22;1368;49.484;11.112;2024-01-07T15:07:20;0.90;99.90
2721;DHT22;1368;49.484;11.112;2024-01-07T15:09:45;0.60;99.90
2721;DHT22;1368;49.484;11.112;2024-01-07T15:12:11;0.60;99.90
2721;DHT22;1368;49.484;11.112;2024-01-07T15:14:36;0.50;99.90
2721;DHT22;1368;49.484;11.112;2024-01-07T15:17:02;0.60;99.90
2721;DHT22;1368;49.484;11.112;2024-01-07T15:19:28;0.40;99.90
2721;DHT22;1368;49.484;11.112;2024-01-07T15:21:55;0.30;99.90
2721;DHT22;1368;49.484;11.112;2024-01-07T15:24:22;0.40;99.90
2721;DHT22;1368;49.484;11.112;2024-01-07T15:26:47;0.50;99.90
2721;DHT22;1368;49.484;11.112;2024-01-07T15:29:13;0.40;99.90
2721;DHT22;1368;49.484;11.112;2024-01-07T15:31:39;0.30;99.90
2721;DHT22;1368;49.484;11.112;2024-01-07T15:34:04;0.20;99.90
2721;DHT22;1368;49.484;11.112;2024-01-07T15:36:32;0.20;99.90
2721;DHT22;1368;49.484;11.112;2024-01-07T15:38:58;0.20;99.90
2721;DHT22;1368;49.484;11.112;2024-01-07T15:41:24;0.20;99.90
2721;DHT22;1368;49.484;11.112;2024-01-07T15:43:49;0.20;99.90
2721;DHT22;1368;49.484;11.112;2024-01-07T15:46:15;0.10;99.90
2721;DHT22;1368;49.484;11.112;2024-01-07T15:48:40;0.10;99.90
2721;DHT22;1368;49.484;11.112;2024-01-07T15:51:06;0.10;99.90
2721;DHT22;1368;49.484;11.112;2024-01-07T15:53:32;0.20;99.90
2721;DHT22;1368;49.484;11.112;2024-01-07T15:56:02;0.40;99.90
2721;DHT22;1368;49.484;11.112;2024-01-07T15:58:29;0.20;99.90
2721;DHT22;1368;49.484;11.112;2024-01-07T16:00:59;0.20;99.90